sensor_id;sensor_type;location;lat;lon;timestamp;temperature;humidity
25410;DHT22;13339;50.840;4.346;2022-10-22T00:00:08;17.30;99.90
25410;DHT22;13339;50.840;4.346;2022-10-22T00:02:34;17.30;99.90
25410;DHT22;13339;50.840;4.346;2022-10-22T00:05:00;17.20;99.90
25410;DHT22;13339;50.840;4.346;2022-10-22T00:07:25;17.30;99.90
25410;DHT22;13339;50.840;4.346;2022-10-22T00:09:51;17.30;99.90
25410;DHT22;13339;50.840;4.346;2022-10-22T00:12:17;17.20;99.90
25410;DHT22;13339;50.840;4.346;2022-10-22T00:14:43;17.20;99.90
25410;DHT22;13339;50.840;4.346;2022-10-22T00:17:08;17.10;99.90
25410;DHT22;13339;50.840;4.346;2022-10-22T00:19:34;17.10;99.90
25410;DHT22;13339;50.840;4.346;2022-10-22T00:22:00;17.10;99.90
25410;DHT22;13339;50.840;4.346;2022-10-22T00:24:30;17.20;99.90
25410;DHT22;13339;50.840;4.346;2022-10-22T00:26:55;17.30;99.90
25410;DHT22;13339;50.840;4.346;2022-10-22T00:29:21;17.20;99.90
25410;DHT22;13339;50.840;4.346;2022-10-22T00:31:47;17.20;99.90
25410;DHT22;13339;50.840;4.346;2022-10-22T00:34:18;17.20;99.90
25410;DHT22;13339;50.840;4.346;2022-10-22T00:36:46;17.20;99.90
25410;DHT22;13339;50.840;4.346;2022-10-22T00:39:13;17.10;99.90
25410;DHT22;13339;50.840;4.346;2022-10-22T00:41:41;17.00;99.90
25410;DHT22;13339;50.840;4.346;2022-10-22T00:44:07;17.10;99.90
25410;DHT22;13339;50.840;4.346;2022-10-22T00:46:32;17.00;99.90
25410;DHT22;13339;50.840;4.346;2022-10-22T00:49:01;17.00;99.90
25410;DHT22;13339;50.840;4.346;2022-10-22T00:51:31;17.10;99.90
25410;DHT22;13339;50.840;4.346;2022-10-22T00:54:02;17.20;99.90
25410;DHT22;13339;50.840;4.346;2022-10-22T00:56:29;17.10;99.90
25410;DHT22;13339;50.840;4.346;2022-10-22T00:58:56;17.00;99.90
25410;DHT22;13339;50.840;4.346;2022-10-22T01:01:27;17.00;99.90
25410;DHT22;13339;50.840;4.346;2022-10-22T01:03:54;17.10;99.90
25410;DHT22;13339;50.840;4.346;2022-10-22T01:06:28;17.10;99.90
25410;DHT22;13339;50.840;4.346;2022-10-22T01:09:07;17.20;99.90
25410;DHT22;13339;50.840;4.346;2022-10-22T01:14:31;17.20;99.90
25410;DHT22;13339;50.840;4.346;2022-10-22T01:17:13;17.20;99.90
25410;DHT22;13339;50.840;4.346;2022-10-22T01:25:30;17.20;99.90
25410;DHT22;13339;50.840;4.346;2022-10-22T01:28:22;17.30;99.90
25410;DHT22;13339;50.840;4.346;2022-10-22T01:30:53;17.40;99.90
25410;DHT22;13339;50.840;4.346;2022-10-22T01:33:21;17.50;99.90
25410;DHT22;13339;50.840;4.346;2022-10-22T01:35:48;17.40;99.90
25410;DHT22;13339;50.840;4.346;2022-10-22T01:38:18;17.40;99.90
25410;DHT22;13339;50.840;4.346;2022-10-22T01:40:46;17.30;99.90
25410;DHT22;13339;50.840;4.346;2022-10-22T01:43:12;17.30;99.90
25410;DHT22;13339;50.840;4.346;2022-10-22T01:45:47;17.30;99.90
25410;DHT22;13339;50.840;4.346;2022-10-22T01:48:51;17.30;99.90
25410;DHT22;13339;50.840;4.346;2022-10-22T02:04:49;17.60;99.90
25410;DHT22;13339;50.840;4.346;2022-10-22T02:07:19;17.60;99.90
25410;DHT22;13339;50.840;4.346;2022-10-22T02:09:46;17.60;99.90
25410;DHT22;13339;50.840;4.346;2022-10-22T02:12:14;17.50;99.90
25410;DHT22;13339;50.840;4.346;2022-10-22T02:14:43;17.50;99.90
25410;DHT22;13339;50.840;4.346;2022-10-22T02:17:14;17.60;99.90
25410;DHT22;13339;50.840;4.346;2022-10-22T02:20:00;17.50;99.90
25410;DHT22;13339;50.840;4.346;2022-10-22T02:22:28;17.50;99.90
25410;DHT22;13339;50.840;4.346;2022-10-22T02:24:54;17.60;99.90
25410;DHT22;13339;50.840;4.346;2022-10-22T02:27:40;17.60;99.90
25410;DHT22;13339;50.840;4.346;2022-10-22T02:30:13;17.50;99.90
25410;DHT22;13339;50.840;4.346;2022-10-22T02:35:42;17.50;99.90
25410;DHT22;13339;50.840;4.346;2022-10-22T02:38:09;17.40;99.90
25410;DHT22;13339;50.840;4.346;2022-10-22T02:40:36;17.50;99.90
25410;DHT22;13339;50.840;4.346;2022-10-22T02:43:04;17.30;99.90
25410;DHT22;13339;50.840;4.346;2022-10-22T02:45:30;17.30;99.90
25410;DHT22;13339;50.840;4.346;2022-10-22T02:47:56;17.40;99.90
25410;DHT22;13339;50.840;4.346;2022-10-22T02:50:21;17.40;99.90
25410;DHT22;13339;50.840;4.346;2022-10-22T02:52:47;17.40;99.90
25410;DHT22;13339;50.840;4.346;2022-10-22T02:55:13;17.40;99.90
25410;DHT22;13339;50.840;4.346;2022-10-22T02:57:38;17.40;99.90
25410;DHT22;13339;50.840;4.346;2022-10-22T03:00:05;17.50;99.90
25410;DHT22;13339;50.840;4.346;2022-10-22T03:02:31;17.50;99.90
25410;DHT22;13339;50.840;4.346;2022-10-22T03:04:57;17.50;99.90
25410;DHT22;13339;50.840;4.346;2022-10-22T03:07:22;17.50;99.90
25410;DHT22;13339;50.840;4.346;2022-10-22T03:09:48;17.50;99.90
25410;DHT22;13339;50.840;4.346;2022-10-22T03:12:13;17.30;99.90
25410;DHT22;13339;50.840;4.346;2022-10-22T03:14:39;17.40;99.90
25410;DHT22;13339;50.840;4.346;2022-10-22T03:17:05;17.40;99.90
25410;DHT22;13339;50.840;4.346;2022-10-22T03:19:30;17.30;99.90
25410;DHT22;13339;50.840;4.346;2022-10-22T03:22:00;17.40;99.90
25410;DHT22;13339;50.840;4.346;2022-10-22T03:24:34;17.30;99.90
25410;DHT22;13339;50.840;4.346;2022-10-22T03:27:01;17.40;99.90
25410;DHT22;13339;50.840;4.346;2022-10-22T03:29:27;17.50;99.90
25410;DHT22;13339;50.840;4.346;2022-10-22T03:31:53;17.30;99.90
25410;DHT22;13339;50.840;4.346;2022-10-22T03:34:19;17.30;99.90
25410;DHT22;13339;50.840;4.346;2022-10-22T03:36:45;17.30;99.90
25410;DHT22;13339;50.840;4.346;2022-10-22T03:39:12;17.40;99.90
25410;DHT22;13339;50.840;4.346;2022-10-22T03:41:39;17.30;99.90
25410;DHT22;13339;50.840;4.346;2022-10-22T03:44:05;17.30;99.90
25410;DHT22;13339;50.840;4.346;2022-10-22T03:46:31;17.40;99.90
25410;DHT22;13339;50.840;4.346;2022-10-22T03:48:56;17.30;99.90
25410;DHT22;13339;50.840;4.346;2022-10-22T03:51:22;17.30;99.90
25410;DHT22;13339;50.840;4.346;2022-10-22T03:53:47;17.40;99.90
25410;DHT22;13339;50.840;4.346;2022-10-22T03:56:13;17.30;99.90
25410;DHT22;13339;50.840;4.346;2022-10-22T03:58:40;17.40;99.90
25410;DHT22;13339;50.840;4.346;2022-10-22T04:01:07;17.50;99.90
25410;DHT22;13339;50.840;4.346;2022-10-22T04:03:33;17.50;99.90
25410;DHT22;13339;50.840;4.346;2022-10-22T04:06:03;17.50;99.90
25410;DHT22;13339;50.840;4.346;2022-10-22T04:08:31;17.30;99.90
25410;DHT22;13339;50.840;4.346;2022-10-22T04:10:56;17.40;99.90
25410;DHT22;13339;50.840;4.346;2022-10-22T04:13:22;17.40;99.90
25410;DHT22;13339;50.840;4.346;2022-10-22T04:15:47;17.40;99.90
25410;DHT22;13339;50.840;4.346;2022-10-22T04:18:13;17.50;99.90
25410;DHT22;13339;50.840;4.346;2022-10-22T04:20:40;17.40;99.90
25410;DHT22;13339;50.840;4.346;2022-10-22T04:23:06;17.40;99.90
25410;DHT22;13339;50.840;4.346;2022-10-22T04:25:31;17.40;99.90
25410;DHT22;13339;50.840;4.346;2022-10-22T04:27:57;17.40;99.90
25410;DHT22;13339;50.840;4.346;2022-10-22T04:30:23;17.40;99.90
25410;DHT22;13339;50.840;4.346;2022-10-22T04:32:48;17.30;99.90
25410;DHT22;13339;50.840;4.346;2022-10-22T04:35:14;17.50;99.90
25410;DHT22;13339;50.840;4.346;2022-10-22T04:37:39;17.40;99.90
25410;DHT22;13339;50.840;4.346;2022-10-22T04:40:05;17.40;99.90
25410;DHT22;13339;50.840;4.346;2022-10-22T04:42:32;17.40;99.90
25410;DHT22;13339;50.840;4.346;2022-10-22T04:44:58;17.40;99.90
25410;DHT22;13339;50.840;4.346;2022-10-22T04:47:23;17.30;99.90
25410;DHT22;13339;50.840;4.346;2022-10-22T04:49:49;17.30;99.90
25410;DHT22;13339;50.840;4.346;2022-10-22T04:52:14;17.30;99.90
25410;DHT22;13339;50.840;4.346;2022-10-22T04:54:40;17.30;99.90
25410;DHT22;13339;50.840;4.346;2022-10-22T04:57:06;17.40;99.90
25410;DHT22;13339;50.840;4.346;2022-10-22T04:59:31;17.40;99.90
25410;DHT22;13339;50.840;4.346;2022-10-22T05:01:57;17.40;99.90
25410;DHT22;13339;50.840;4.346;2022-10-22T05:04:23;17.40;99.90
25410;DHT22;13339;50.840;4.346;2022-10-22T05:06:48;17.40;99.90
25410;DHT22;13339;50.840;4.346;2022-10-22T05:09:16;17.50;99.90
25410;DHT22;13339;50.840;4.346;2022-10-22T05:11:43;17.50;99.90
25410;DHT22;13339;50.840;4.346;2022-10-22T05:14:17;17.70;99.90
25410;DHT22;13339;50.840;4.346;2022-10-22T05:16:43;17.50;99.90
25410;DHT22;13339;50.840;4.346;2022-10-22T05:19:22;17.50;99.90
25410;DHT22;13339;50.840;4.346;2022-10-22T05:21:55;17.60;99.90
25410;DHT22;13339;50.840;4.346;2022-10-22T05:24:21;17.60;99.90
25410;DHT22;13339;50.840;4.346;2022-10-22T05:26:51;17.70;99.90
25410;DHT22;13339;50.840;4.346;2022-10-22T05:29:17;17.70;99.90
25410;DHT22;13339;50.840;4.346;2022-10-22T05:31:42;17.80;99.90
25410;DHT22;13339;50.840;4.346;2022-10-22T05:34:08;17.80;99.90
25410;DHT22;13339;50.840;4.346;2022-10-22T05:36:34;17.80;99.90
25410;DHT22;13339;50.840;4.346;2022-10-22T05:38:59;17.80;99.90
25410;DHT22;13339;50.840;4.346;2022-10-22T05:41:27;17.90;99.90
25410;DHT22;13339;50.840;4.346;2022-10-22T05:43:57;17.90;99.90
25410;DHT22;13339;50.840;4.346;2022-10-22T05:46:25;17.90;99.90
25410;DHT22;13339;50.840;4.346;2022-10-22T05:48:56;17.90;99.90
25410;DHT22;13339;50.840;4.346;2022-10-22T05:51:23;17.90;99.90
25410;DHT22;13339;50.840;4.346;2022-10-22T05:53:55;17.70;99.90
25410;DHT22;13339;50.840;4.346;2022-10-22T05:56:21;17.70;99.90
25410;DHT22;13339;50.840;4.346;2022-10-22T05:58:47;17.80;99.90
25410;DHT22;13339;50.840;4.346;2022-10-22T06:01:14;17.80;99.90
25410;DHT22;13339;50.840;4.346;2022-10-22T06:03:40;17.70;99.90
25410;DHT22;13339;50.840;4.346;2022-10-22T06:08:49;17.70;99.90
25410;DHT22;13339;50.840;4.346;2022-10-22T06:11:17;17.70;99.90
25410;DHT22;13339;50.840;4.346;2022-10-22T06:13:44;17.60;99.90
25410;DHT22;13339;50.840;4.346;2022-10-22T06:16:10;17.60;99.90
25410;DHT22;13339;50.840;4.346;2022-10-22T06:18:36;17.70;99.90
25410;DHT22;13339;50.840;4.346;2022-10-22T06:21:10;17.70;99.90
25410;DHT22;13339;50.840;4.346;2022-10-22T06:23:36;17.80;99.90
25410;DHT22;13339;50.840;4.346;2022-10-22T06:26:03;17.70;99.90
25410;DHT22;13339;50.840;4.346;2022-10-22T06:28:29;17.60;99.90
25410;DHT22;13339;50.840;4.346;2022-10-22T06:30:57;17.70;99.90
25410;DHT22;13339;50.840;4.346;2022-10-22T06:33:23;17.70;99.90
25410;DHT22;13339;50.840;4.346;2022-10-22T06:35:48;17.80;99.90
25410;DHT22;13339;50.840;4.346;2022-10-22T06:38:14;17.90;99.90
25410;DHT22;13339;50.840;4.346;2022-10-22T06:40:40;17.70;99.90
25410;DHT22;13339;50.840;4.346;2022-10-22T06:43:08;17.70;99.90
25410;DHT22;13339;50.840;4.346;2022-10-22T06:45:34;17.80;99.90
25410;DHT22;13339;50.840;4.346;2022-10-22T06:47:59;17.70;99.90
25410;DHT22;13339;50.840;4.346;2022-10-22T06:50:25;17.80;99.90
25410;DHT22;13339;50.840;4.346;2022-10-22T06:52:50;17.90;99.90
25410;DHT22;13339;50.840;4.346;2022-10-22T06:55:16;17.90;99.90
25410;DHT22;13339;50.840;4.346;2022-10-22T06:57:42;17.90;99.90
25410;DHT22;13339;50.840;4.346;2022-10-22T07:00:08;17.90;99.90
25410;DHT22;13339;50.840;4.346;2022-10-22T07:02:34;17.80;99.90
25410;DHT22;13339;50.840;4.346;2022-10-22T07:04:59;17.80;99.90
25410;DHT22;13339;50.840;4.346;2022-10-22T07:07:25;17.80;99.90
25410;DHT22;13339;50.840;4.346;2022-10-22T07:09:51;17.80;99.90
25410;DHT22;13339;50.840;4.346;2022-10-22T07:12:16;17.80;99.90
25410;DHT22;13339;50.840;4.346;2022-10-22T07:14:42;17.70;99.90
25410;DHT22;13339;50.840;4.346;2022-10-22T07:17:08;17.80;99.90
25410;DHT22;13339;50.840;4.346;2022-10-22T07:19:33;17.90;99.90
25410;DHT22;13339;50.840;4.346;2022-10-22T07:21:59;18.00;99.90
25410;DHT22;13339;50.840;4.346;2022-10-22T07:24:25;18.10;99.90
25410;DHT22;13339;50.840;4.346;2022-10-22T07:26:50;18.10;99.90
25410;DHT22;13339;50.840;4.346;2022-10-22T07:29:16;18.20;99.90
25410;DHT22;13339;50.840;4.346;2022-10-22T07:31:42;18.20;99.90
25410;DHT22;13339;50.840;4.346;2022-10-22T07:34:08;18.20;99.90
25410;DHT22;13339;50.840;4.346;2022-10-22T07:36:34;18.20;99.90
25410;DHT22;13339;50.840;4.346;2022-10-22T07:39:00;18.20;99.90
25410;DHT22;13339;50.840;4.346;2022-10-22T07:41:27;18.30;99.90
25410;DHT22;13339;50.840;4.346;2022-10-22T07:43:54;18.10;99.90
25410;DHT22;13339;50.840;4.346;2022-10-22T07:46:20;18.20;99.90
25410;DHT22;13339;50.840;4.346;2022-10-22T07:48:46;18.20;99.90
25410;DHT22;13339;50.840;4.346;2022-10-22T07:51:12;18.20;99.90
25410;DHT22;13339;50.840;4.346;2022-10-22T07:53:37;18.10;99.90
25410;DHT22;13339;50.840;4.346;2022-10-22T07:56:04;18.20;99.90
25410;DHT22;13339;50.840;4.346;2022-10-22T07:58:29;18.20;99.90
25410;DHT22;13339;50.840;4.346;2022-10-22T08:00:57;18.30;99.90
25410;DHT22;13339;50.840;4.346;2022-10-22T08:03:25;18.30;99.90
25410;DHT22;13339;50.840;4.346;2022-10-22T08:05:52;18.30;99.90
25410;DHT22;13339;50.840;4.346;2022-10-22T08:08:18;18.20;99.90
25410;DHT22;13339;50.840;4.346;2022-10-22T08:10:45;18.20;99.90
25410;DHT22;13339;50.840;4.346;2022-10-22T08:13:11;18.40;99.90
25410;DHT22;13339;50.840;4.346;2022-10-22T08:15:36;18.40;99.90
25410;DHT22;13339;50.840;4.346;2022-10-22T08:18:03;18.50;99.90
25410;DHT22;13339;50.840;4.346;2022-10-22T08:20:28;18.50;99.90
25410;DHT22;13339;50.840;4.346;2022-10-22T08:22:54;18.50;99.90
25410;DHT22;13339;50.840;4.346;2022-10-22T08:25:20;18.50;99.90
25410;DHT22;13339;50.840;4.346;2022-10-22T08:27:45;18.50;99.90
25410;DHT22;13339;50.840;4.346;2022-10-22T08:30:12;18.50;99.90
25410;DHT22;13339;50.840;4.346;2022-10-22T08:32:38;18.60;99.90
25410;DHT22;13339;50.840;4.346;2022-10-22T08:35:04;18.70;99.90
25410;DHT22;13339;50.840;4.346;2022-10-22T08:37:29;18.60;99.90
25410;DHT22;13339;50.840;4.346;2022-10-22T08:39:55;18.60;99.90
25410;DHT22;13339;50.840;4.346;2022-10-22T08:42:56;18.60;99.90
25410;DHT22;13339;50.840;4.346;2022-10-22T08:45:53;18.70;99.90
25410;DHT22;13339;50.840;4.346;2022-10-22T08:48:48;18.60;99.90
25410;DHT22;13339;50.840;4.346;2022-10-22T08:51:20;18.50;99.90
25410;DHT22;13339;50.840;4.346;2022-10-22T08:56:36;18.40;99.90
25410;DHT22;13339;50.840;4.346;2022-10-22T08:59:04;18.30;99.90
25410;DHT22;13339;50.840;4.346;2022-10-22T09:01:39;18.50;99.90
25410;DHT22;13339;50.840;4.346;2022-10-22T09:04:31;18.60;99.90
25410;DHT22;13339;50.840;4.346;2022-10-22T09:07:00;18.80;99.90
25410;DHT22;13339;50.840;4.346;2022-10-22T09:09:30;19.00;99.90
25410;DHT22;13339;50.840;4.346;2022-10-22T09:11:58;19.00;99.90
25410;DHT22;13339;50.840;4.346;2022-10-22T09:14:25;18.90;99.90
25410;DHT22;13339;50.840;4.346;2022-10-22T09:24:56;19.30;99.90
25410;DHT22;13339;50.840;4.346;2022-10-22T09:27:30;19.40;99.90
25410;DHT22;13339;50.840;4.346;2022-10-22T09:29:56;19.50;99.90
25410;DHT22;13339;50.840;4.346;2022-10-22T09:32:22;19.50;99.90
25410;DHT22;13339;50.840;4.346;2022-10-22T09:34:49;19.50;99.90
25410;DHT22;13339;50.840;4.346;2022-10-22T09:37:19;19.40;99.90
25410;DHT22;13339;50.840;4.346;2022-10-22T09:39:54;19.30;99.90
25410;DHT22;13339;50.840;4.346;2022-10-22T09:42:21;19.30;99.90
25410;DHT22;13339;50.840;4.346;2022-10-22T09:44:55;19.30;99.90
25410;DHT22;13339;50.840;4.346;2022-10-22T09:47:32;19.20;99.90
25410;DHT22;13339;50.840;4.346;2022-10-22T09:52:53;19.30;99.90
25410;DHT22;13339;50.840;4.346;2022-10-22T09:55:20;19.30;99.90
25410;DHT22;13339;50.840;4.346;2022-10-22T09:57:53;19.30;99.90
25410;DHT22;13339;50.840;4.346;2022-10-22T10:00:19;19.30;99.90
25410;DHT22;13339;50.840;4.346;2022-10-22T10:02:45;19.20;99.90
25410;DHT22;13339;50.840;4.346;2022-10-22T10:05:31;19.10;99.90
25410;DHT22;13339;50.840;4.346;2022-10-22T10:07:58;19.10;99.90
25410;DHT22;13339;50.840;4.346;2022-10-22T10:10:34;19.10;99.90
25410;DHT22;13339;50.840;4.346;2022-10-22T10:13:27;19.10;99.90
25410;DHT22;13339;50.840;4.346;2022-10-22T10:16:00;19.00;99.90
25410;DHT22;13339;50.840;4.346;2022-10-22T10:21:34;19.10;99.90
25410;DHT22;13339;50.840;4.346;2022-10-22T10:24:11;19.20;99.90
25410;DHT22;13339;50.840;4.346;2022-10-22T10:27:09;19.30;99.90
25410;DHT22;13339;50.840;4.346;2022-10-22T10:29:59;19.50;99.90
25410;DHT22;13339;50.840;4.346;2022-10-22T10:40:46;20.00;99.90
25410;DHT22;13339;50.840;4.346;2022-10-22T10:43:21;19.90;99.90
25410;DHT22;13339;50.840;4.346;2022-10-22T10:48:59;19.90;99.90
25410;DHT22;13339;50.840;4.346;2022-10-22T10:59:44;20.10;99.90
25410;DHT22;13339;50.840;4.346;2022-10-22T11:08:00;20.00;99.90
25410;DHT22;13339;50.840;4.346;2022-10-22T11:17:09;20.00;99.90
25410;DHT22;13339;50.840;4.346;2022-10-22T11:19:24;20.10;99.90
25410;DHT22;13339;50.840;4.346;2022-10-22T11:24:39;20.20;99.90
25410;DHT22;13339;50.840;4.346;2022-10-22T11:30:00;20.30;99.90
25410;DHT22;13339;50.840;4.346;2022-10-22T11:32:27;20.50;99.90
25410;DHT22;13339;50.840;4.346;2022-10-22T11:34:55;20.80;99.90
25410;DHT22;13339;50.840;4.346;2022-10-22T11:37:24;21.00;99.90
25410;DHT22;13339;50.840;4.346;2022-10-22T11:39:55;21.20;99.90
25410;DHT22;13339;50.840;4.346;2022-10-22T11:42:40;21.30;99.90
25410;DHT22;13339;50.840;4.346;2022-10-22T11:50:25;21.10;99.90
25410;DHT22;13339;50.840;4.346;2022-10-22T11:53:03;21.10;99.90
25410;DHT22;13339;50.840;4.346;2022-10-22T11:55:50;21.10;99.90
25410;DHT22;13339;50.840;4.346;2022-10-22T11:58:41;21.10;99.90
25410;DHT22;13339;50.840;4.346;2022-10-22T12:11:18;21.40;99.90
25410;DHT22;13339;50.840;4.346;2022-10-22T12:17:07;21.30;99.90
25410;DHT22;13339;50.840;4.346;2022-10-22T12:19:38;21.00;99.90
25410;DHT22;13339;50.840;4.346;2022-10-22T12:22:14;21.10;99.90
25410;DHT22;13339;50.840;4.346;2022-10-22T12:24:46;21.20;99.90
25410;DHT22;13339;50.840;4.346;2022-10-22T12:27:25;21.30;99.90
25410;DHT22;13339;50.840;4.346;2022-10-22T12:29:56;21.40;99.90
25410;DHT22;13339;50.840;4.346;2022-10-22T12:32:22;21.30;99.90
25410;DHT22;13339;50.840;4.346;2022-10-22T12:34:52;21.30;99.90
25410;DHT22;13339;50.840;4.346;2022-10-22T12:37:18;21.30;99.90
25410;DHT22;13339;50.840;4.346;2022-10-22T12:39:45;21.40;99.90
25410;DHT22;13339;50.840;4.346;2022-10-22T12:42:16;21.40;99.90
25410;DHT22;13339;50.840;4.346;2022-10-22T12:44:43;21.50;99.90
25410;DHT22;13339;50.840;4.346;2022-10-22T12:47:16;21.60;99.90
25410;DHT22;13339;50.840;4.346;2022-10-22T12:49:46;21.70;99.90
25410;DHT22;13339;50.840;4.346;2022-10-22T12:52:16;21.60;99.90
25410;DHT22;13339;50.840;4.346;2022-10-22T12:54:44;21.60;99.90
25410;DHT22;13339;50.840;4.346;2022-10-22T12:57:16;21.60;99.90
25410;DHT22;13339;50.840;4.346;2022-10-22T12:59:45;21.50;99.90
25410;DHT22;13339;50.840;4.346;2022-10-22T13:02:22;21.40;99.90
25410;DHT22;13339;50.840;4.346;2022-10-22T13:08:31;21.50;99.90
25410;DHT22;13339;50.840;4.346;2022-10-22T13:10:40;21.50;99.90
25410;DHT22;13339;50.840;4.346;2022-10-22T13:13:27;21.50;99.90
25410;DHT22;13339;50.840;4.346;2022-10-22T13:15:52;21.60;99.90
25410;DHT22;13339;50.840;4.346;2022-10-22T13:18:22;21.60;99.90
25410;DHT22;13339;50.840;4.346;2022-10-22T13:23:19;21.60;99.90
25410;DHT22;13339;50.840;4.346;2022-10-22T13:26:03;21.60;99.90
25410;DHT22;13339;50.840;4.346;2022-10-22T13:28:33;21.50;99.90
25410;DHT22;13339;50.840;4.346;2022-10-22T13:31:01;21.50;99.90
25410;DHT22;13339;50.840;4.346;2022-10-22T13:33:36;21.40;99.90
25410;DHT22;13339;50.840;4.346;2022-10-22T13:36:03;21.40;99.90
25410;DHT22;13339;50.840;4.346;2022-10-22T13:38:29;21.50;99.90
25410;DHT22;13339;50.840;4.346;2022-10-22T13:40:55;21.50;99.90
25410;DHT22;13339;50.840;4.346;2022-10-22T13:43:21;21.60;99.90
25410;DHT22;13339;50.840;4.346;2022-10-22T13:45:58;21.50;99.90
25410;DHT22;13339;50.840;4.346;2022-10-22T13:48:25;21.60;99.90
25410;DHT22;13339;50.840;4.346;2022-10-22T13:50:52;21.60;99.90
25410;DHT22;13339;50.840;4.346;2022-10-22T13:53:21;21.60;99.90
25410;DHT22;13339;50.840;4.346;2022-10-22T13:55:47;21.60;99.90
25410;DHT22;13339;50.840;4.346;2022-10-22T13:58:17;21.70;99.90
25410;DHT22;13339;50.840;4.346;2022-10-22T14:00:45;21.70;99.90
25410;DHT22;13339;50.840;4.346;2022-10-22T14:03:15;21.70;99.90
25410;DHT22;13339;50.840;4.346;2022-10-22T14:05:41;21.70;99.90
25410;DHT22;13339;50.840;4.346;2022-10-22T14:08:12;21.70;99.90
25410;DHT22;13339;50.840;4.346;2022-10-22T14:10:38;21.50;99.90
25410;DHT22;13339;50.840;4.346;2022-10-22T14:13:09;21.50;99.90
25410;DHT22;13339;50.840;4.346;2022-10-22T14:15:36;21.60;99.90
25410;DHT22;13339;50.840;4.346;2022-10-22T14:18:03;21.50;99.90
25410;DHT22;13339;50.840;4.346;2022-10-22T14:20:30;21.60;99.90
25410;DHT22;13339;50.840;4.346;2022-10-22T14:23:12;21.60;99.90
25410;DHT22;13339;50.840;4.346;2022-10-22T14:25:38;21.50;99.90
25410;DHT22;13339;50.840;4.346;2022-10-22T14:28:04;21.60;99.90
25410;DHT22;13339;50.840;4.346;2022-10-22T14:30:30;21.60;99.90
25410;DHT22;13339;50.840;4.346;2022-10-22T14:32:57;21.60;99.90
25410;DHT22;13339;50.840;4.346;2022-10-22T14:35:23;21.60;99.90
25410;DHT22;13339;50.840;4.346;2022-10-22T14:37:49;21.50;99.90
25410;DHT22;13339;50.840;4.346;2022-10-22T14:40:17;21.60;99.90
25410;DHT22;13339;50.840;4.346;2022-10-22T14:42:45;21.50;99.90
25410;DHT22;13339;50.840;4.346;2022-10-22T14:45:18;21.50;99.90
25410;DHT22;13339;50.840;4.346;2022-10-22T14:47:44;21.50;99.90
25410;DHT22;13339;50.840;4.346;2022-10-22T14:50:10;21.40;99.90
25410;DHT22;13339;50.840;4.346;2022-10-22T14:52:36;21.50;99.90
25410;DHT22;13339;50.840;4.346;2022-10-22T14:55:02;21.50;99.90
25410;DHT22;13339;50.840;4.346;2022-10-22T14:57:27;21.50;99.90
25410;DHT22;13339;50.840;4.346;2022-10-22T14:59:53;21.40;99.90
25410;DHT22;13339;50.840;4.346;2022-10-22T15:02:19;21.40;99.90
25410;DHT22;13339;50.840;4.346;2022-10-22T15:04:46;21.50;99.90
25410;DHT22;13339;50.840;4.346;2022-10-22T15:07:12;21.40;99.90
25410;DHT22;13339;50.840;4.346;2022-10-22T15:09:37;21.40;99.90
25410;DHT22;13339;50.840;4.346;2022-10-22T15:12:03;21.30;99.90
25410;DHT22;13339;50.840;4.346;2022-10-22T15:14:29;21.40;99.90
25410;DHT22;13339;50.840;4.346;2022-10-22T15:16:54;21.40;99.90
25410;DHT22;13339;50.840;4.346;2022-10-22T15:19:20;21.30;99.90
25410;DHT22;13339;50.840;4.346;2022-10-22T15:21:45;21.30;99.90
25410;DHT22;13339;50.840;4.346;2022-10-22T15:24:11;21.30;99.90
25410;DHT22;13339;50.840;4.346;2022-10-22T15:26:37;21.40;99.90
25410;DHT22;13339;50.840;4.346;2022-10-22T15:29:03;21.40;99.90
25410;DHT22;13339;50.840;4.346;2022-10-22T15:31:48;21.30;99.90
25410;DHT22;13339;50.840;4.346;2022-10-22T15:34:22;21.40;99.90
25410;DHT22;13339;50.840;4.346;2022-10-22T15:36:49;21.40;99.90
25410;DHT22;13339;50.840;4.346;2022-10-22T15:39:15;21.40;99.90
25410;DHT22;13339;50.840;4.346;2022-10-22T15:41:41;21.40;99.90
25410;DHT22;13339;50.840;4.346;2022-10-22T15:44:06;21.50;99.90
25410;DHT22;13339;50.840;4.346;2022-10-22T15:46:34;21.40;99.90
25410;DHT22;13339;50.840;4.346;2022-10-22T15:49:00;21.40;99.90
25410;DHT22;13339;50.840;4.346;2022-10-22T15:51:25;21.40;99.90
25410;DHT22;13339;50.840;4.346;2022-10-22T15:53:53;21.50;99.90
25410;DHT22;13339;50.840;4.346;2022-10-22T15:56:19;21.40;99.90
25410;DHT22;13339;50.840;4.346;2022-10-22T15:58:44;21.40;99.90
25410;DHT22;13339;50.840;4.346;2022-10-22T16:01:12;21.40;99.90
25410;DHT22;13339;50.840;4.346;2022-10-22T16:03:38;21.40;99.90
25410;DHT22;13339;50.840;4.346;2022-10-22T16:06:05;21.30;99.90
25410;DHT22;13339;50.840;4.346;2022-10-22T16:08:31;21.20;99.90
25410;DHT22;13339;50.840;4.346;2022-10-22T16:10:57;21.10;99.90
25410;DHT22;13339;50.840;4.346;2022-10-22T16:13:23;21.20;99.90
25410;DHT22;13339;50.840;4.346;2022-10-22T16:15:50;21.20;99.90
25410;DHT22;13339;50.840;4.346;2022-10-22T16:18:17;21.20;99.90
25410;DHT22;13339;50.840;4.346;2022-10-22T16:20:43;21.10;99.90
25410;DHT22;13339;50.840;4.346;2022-10-22T16:23:09;21.20;99.90
25410;DHT22;13339;50.840;4.346;2022-10-22T16:25:42;21.20;99.90
25410;DHT22;13339;50.840;4.346;2022-10-22T16:28:08;21.20;99.90
25410;DHT22;13339;50.840;4.346;2022-10-22T16:30:36;21.10;99.90
25410;DHT22;13339;50.840;4.346;2022-10-22T16:33:03;21.00;99.90
25410;DHT22;13339;50.840;4.346;2022-10-22T16:35:29;21.00;99.90
25410;DHT22;13339;50.840;4.346;2022-10-22T16:37:55;21.00;99.90
25410;DHT22;13339;50.840;4.346;2022-10-22T16:40:20;20.90;99.90
25410;DHT22;13339;50.840;4.346;2022-10-22T16:42:46;20.90;99.90
25410;DHT22;13339;50.840;4.346;2022-10-22T16:45:12;21.00;99.90
25410;DHT22;13339;50.840;4.346;2022-10-22T16:47:37;20.90;99.90
25410;DHT22;13339;50.840;4.346;2022-10-22T16:50:05;21.00;99.90
25410;DHT22;13339;50.840;4.346;2022-10-22T16:52:31;20.80;99.90
25410;DHT22;13339;50.840;4.346;2022-10-22T16:54:56;20.80;99.90
25410;DHT22;13339;50.840;4.346;2022-10-22T16:57:23;20.70;99.90
25410;DHT22;13339;50.840;4.346;2022-10-22T16:59:48;20.50;99.90
25410;DHT22;13339;50.840;4.346;2022-10-22T17:02:14;20.40;99.90
25410;DHT22;13339;50.840;4.346;2022-10-22T17:04:39;20.40;99.90
25410;DHT22;13339;50.840;4.346;2022-10-22T17:07:05;20.20;99.90
25410;DHT22;13339;50.840;4.346;2022-10-22T17:09:31;20.10;99.90
25410;DHT22;13339;50.840;4.346;2022-10-22T17:11:56;20.10;99.90
25410;DHT22;13339;50.840;4.346;2022-10-22T17:14:22;20.10;99.90
25410;DHT22;13339;50.840;4.346;2022-10-22T17:16:48;20.00;99.90
25410;DHT22;13339;50.840;4.346;2022-10-22T17:19:18;20.10;99.90
25410;DHT22;13339;50.840;4.346;2022-10-22T17:21:45;20.10;99.90
25410;DHT22;13339;50.840;4.346;2022-10-22T17:24:10;20.00;99.90